Time;durP1;ratioP1;P1;durP2;ratioP2;P2;SDS_P1;SDS_P2;PMS_P1;PMS_P2;Temp;Humidity;BMP_temperature;BMP_pressure;BME280_temperature;BME280_humidity;BME280_pressure;Samples;Min_cycle;Max_cycle;Signal;HPM_P1;HPM_P2
2024/01/20 00:01:21;;;;;;;33.47;14.25;;;;;;;;;;5056646;28;20020;-81
2024/01/20 00:03:47;;;;;;;34.22;15.32;;;;;;;;;;5053304;28;20029;-82
2024/01/20 00:06:12;;;;;;;34.47;14.50;;;;;;;;;;5053185;28;20024;-82
2024/01/20 00:08:38;;;;;;;38.15;16.67;;;;;;;;;;5049713;28;20483;-82
2024/01/20 00:11:04;;;;;;;35.60;16.73;;;;;;;;;;5069279;28;20028;-81
2024/01/20 00:13:29;;;;;;;32.28;15.40;;;;;;;;;;5053247;28;20032;-81
2024/01/20 00:15:55;;;;;;;35.90;16.73;;;;;;;;;;5066589;28;20024;-81
2024/01/20 00:18:20;;;;;;;30.40;13.10;;;;;;;;;;5046299;28;20024;-77
2024/01/20 00:20:46;;;;;;;31.58;13.95;;;;;;;;;;5073292;28;20032;-77
2024/01/20 00:23:12;;;;;;;34.55;15.02;;;;;;;;;;5066946;28;20115;-77
2024/01/20 00:25:40;;;;;;;35.45;16.38;;;;;;;;;;5063559;28;20463;-77
2024/01/20 00:28:05;;;;;;;30.90;13.00;;;;;;;;;;5068522;28;20480;-77
2024/01/20 00:30:30;;;;;;;34.60;15.18;;;;;;;;;;5049399;28;20067;-77
2024/01/20 00:32:56;;;;;;;32.42;15.15;;;;;;;;;;5064833;28;20025;-77
2024/01/20 00:35:21;;;;;;;35.53;15.27;;;;;;;;;;5063058;28;20039;-77
2024/01/20 00:37:47;;;;;;;33.08;14.32;;;;;;;;;;5045598;28;20032;-77
2024/01/20 00:40:12;;;;;;;29.77;14.75;;;;;;;;;;5039018;28;20501;-77
2024/01/20 00:42:37;;;;;;;32.05;14.65;;;;;;;;;;5065015;28;20039;-77
2024/01/20 00:45:07;;;;;;;32.03;14.80;;;;;;;;;;5064332;28;20023;-77
2024/01/20 00:47:33;;;;;;;32.22;15.63;;;;;;;;;;5063180;28;20051;-77
2024/01/20 00:50:00;;;;;;;37.05;15.77;;;;;;;;;;5070763;28;20029;-77
2024/01/20 00:52:25;;;;;;;31.83;13.80;;;;;;;;;;5070148;28;20025;-77
2024/01/20 00:54:51;;;;;;;33.92;14.98;;;;;;;;;;5050654;28;20028;-77
2024/01/20 00:57:17;;;;;;;36.30;15.02;;;;;;;;;;5068209;28;20031;-77
2024/01/20 00:59:45;;;;;;;29.67;14.07;;;;;;;;;;5068818;28;20028;-77
2024/01/20 01:02:11;;;;;;;32.13;14.52;;;;;;;;;;5068951;28;20028;-76
2024/01/20 01:04:36;;;;;;;33.53;15.07;;;;;;;;;;5066352;28;20043;-77
2024/01/20 01:07:01;;;;;;;28.58;14.20;;;;;;;;;;5067571;28;20497;-77
2024/01/20 01:09:27;;;;;;;35.20;14.13;;;;;;;;;;5064382;28;20036;-77
2024/01/20 01:11:52;;;;;;;28.92;14.10;;;;;;;;;;5067508;28;20109;-77
2024/01/20 01:14:18;;;;;;;32.78;14.15;;;;;;;;;;5045254;28;20034;-76
2024/01/20 01:16:44;;;;;;;34.80;14.10;;;;;;;;;;5050805;28;20419;-77
2024/01/20 01:19:09;;;;;;;35.47;14.35;;;;;;;;;;5066165;28;20082;-77
2024/01/20 01:21:35;;;;;;;29.88;13.40;;;;;;;;;;5064690;28;20029;-77
2024/01/20 01:24:00;;;;;;;32.45;13.90;;;;;;;;;;5059097;28;20119;-77
2024/01/20 01:26:25;;;;;;;28.80;12.82;;;;;;;;;;5067248;28;20574;-77
2024/01/20 01:28:51;;;;;;;30.40;12.73;;;;;;;;;;5050319;28;20064;-77
2024/01/20 01:31:18;;;;;;;30.63;13.50;;;;;;;;;;5065812;28;20082;-76
2024/01/20 01:33:43;;;;;;;30.42;13.20;;;;;;;;;;5068594;28;20024;-77
2024/01/20 01:36:09;;;;;;;30.02;14.15;;;;;;;;;;5067598;28;20090;-77
2024/01/20 01:38:35;;;;;;;30.33;13.27;;;;;;;;;;5062663;28;20066;-77
2024/01/20 01:41:00;;;;;;;28.08;12.80;;;;;;;;;;5063594;28;20056;-78
2024/01/20 01:43:26;;;;;;;29.98;13.43;;;;;;;;;;5063692;28;20071;-77
2024/01/20 01:45:51;;;;;;;31.55;13.10;;;;;;;;;;5065226;28;20393;-77
2024/01/20 01:48:18;;;;;;;29.10;13.52;;;;;;;;;;5063745;28;20032;-77
2024/01/20 01:50:44;;;;;;;27.08;12.43;;;;;;;;;;5046566;28;20078;-77
2024/01/20 01:53:11;;;;;;;27.25;12.25;;;;;;;;;;5065253;28;20032;-77
2024/01/20 01:55:36;;;;;;;25.10;12.43;;;;;;;;;;5044442;28;20390;-77
2024/01/20 01:58:03;;;;;;;28.20;12.18;;;;;;;;;;5064264;28;20036;-77
2024/01/20 02:00:29;;;;;;;29.10;12.57;;;;;;;;;;5065342;28;20418;-81
2024/01/20 02:05:23;;;;;;;27.33;12.38;;;;;;;;;;5046810;28;20041;-77
2024/01/20 02:07:49;;;;;;;27.17;11.82;;;;;;;;;;5030252;28;20041;-77
2024/01/20 02:10:16;;;;;;;26.73;11.93;;;;;;;;;;5027466;28;20025;-77
2024/01/20 02:12:43;;;;;;;25.52;11.77;;;;;;;;;;5038863;28;20032;-77
2024/01/20 02:15:09;;;;;;;29.35;12.55;;;;;;;;;;5022239;28;20083;-77
2024/01/20 02:17:34;;;;;;;28.75;12.23;;;;;;;;;;5024566;28;20025;-77
2024/01/20 02:20:00;;;;;;;27.08;12.55;;;;;;;;;;5026419;28;20415;-77
2024/01/20 02:22:25;;;;;;;33.85;12.80;;;;;;;;;;5042765;28;20411;-77
2024/01/20 02:24:51;;;;;;;29.35;12.88;;;;;;;;;;5021353;28;20040;-77
2024/01/20 02:27:18;;;;;;;28.77;12.30;;;;;;;;;;5043608;28;20044;-77
2024/01/20 02:29:43;;;;;;;28.50;12.00;;;;;;;;;;5023027;28;20040;-77
2024/01/20 02:32:09;;;;;;;30.58;11.93;;;;;;;;;;5029141;28;20022;-77
2024/01/20 02:34:34;;;;;;;25.25;11.85;;;;;;;;;;5028317;28;20033;-77
2024/01/20 02:37:00;;;;;;;25.55;12.15;;;;;;;;;;5043608;28;20112;-77
2024/01/20 02:39:25;;;;;;;26.52;12.02;;;;;;;;;;5033228;28;20471;-77
2024/01/20 02:41:51;;;;;;;28.48;11.80;;;;;;;;;;5046770;28;20116;-77
2024/01/20 02:44:19;;;;;;;31.23;11.88;;;;;;;;;;5068845;28;20031;-77
2024/01/20 02:46:44;;;;;;;26.25;11.52;;;;;;;;;;5064913;28;20016;-77
2024/01/20 02:49:10;;;;;;;24.83;11.13;;;;;;;;;;5060349;28;20028;-77
2024/01/20 02:51:35;;;;;;;27.33;11.88;;;;;;;;;;5047798;28;20063;-77
2024/01/20 02:54:00;;;;;;;30.45;13.05;;;;;;;;;;5063884;28;20112;-77
2024/01/20 02:56:26;;;;;;;26.77;12.07;;;;;;;;;;5045055;28;20039;-77
2024/01/20 02:58:51;;;;;;;27.40;11.45;;;;;;;;;;5068043;28;20554;-77
2024/01/20 03:01:17;;;;;;;28.83;11.30;;;;;;;;;;5059910;28;20086;-77
2024/01/20 03:03:42;;;;;;;25.38;10.73;;;;;;;;;;5068752;28;20036;-77
2024/01/20 03:06:08;;;;;;;29.00;12.45;;;;;;;;;;5061193;28;20066;-77
2024/01/20 03:08:33;;;;;;;31.15;11.38;;;;;;;;;;5062674;28;20021;-77
2024/01/20 03:10:59;;;;;;;26.75;11.55;;;;;;;;;;5062432;28;20082;-77
2024/01/20 03:13:24;;;;;;;28.45;12.18;;;;;;;;;;5044285;28;20479;-77
2024/01/20 03:15:50;;;;;;;28.23;12.02;;;;;;;;;;5059661;28;20376;-77
2024/01/20 03:18:15;;;;;;;26.20;11.98;;;;;;;;;;5048386;28;20024;-83
2024/01/20 03:20:40;;;;;;;28.55;11.68;;;;;;;;;;5050251;28;20031;-82
2024/01/20 03:23:07;;;;;;;24.70;10.63;;;;;;;;;;5061985;28;20097;-83
2024/01/20 03:25:32;;;;;;;30.38;12.10;;;;;;;;;;5065715;28;20017;-83
2024/01/20 03:27:58;;;;;;;29.95;11.93;;;;;;;;;;5059943;28;20039;-83
2024/01/20 03:30:23;;;;;;;27.15;11.77;;;;;;;;;;5061396;28;20036;-84
2024/01/20 03:32:51;;;;;;;25.42;11.05;;;;;;;;;;5065156;28;20501;-83
2024/01/20 03:35:17;;;;;;;28.52;11.27;;;;;;;;;;5064500;28;20100;-83
2024/01/20 03:37:43;;;;;;;26.05;11.85;;;;;;;;;;5062299;28;20024;-83
2024/01/20 03:40:08;;;;;;;26.55;11.13;;;;;;;;;;5061936;28;20027;-83
2024/01/20 03:42:34;;;;;;;28.38;12.73;;;;;;;;;;5062118;28;20367;-83
2024/01/20 03:44:59;;;;;;;27.95;11.98;;;;;;;;;;5044840;28;20059;-83
2024/01/20 03:47:25;;;;;;;26.23;11.68;;;;;;;;;;5065146;28;20397;-83
2024/01/20 03:49:50;;;;;;;25.90;11.73;;;;;;;;;;5042642;28;20379;-83
2024/01/20 03:52:15;;;;;;;23.45;10.82;;;;;;;;;;5045579;28;20406;-83
2024/01/20 03:54:41;;;;;;;29.48;11.93;;;;;;;;;;5046586;28;20440;-83
2024/01/20 03:57:07;;;;;;;26.02;11.95;;;;;;;;;;5069716;28;20487;-83
2024/01/20 03:59:33;;;;;;;27.45;12.77;;;;;;;;;;5045465;28;20494;-83
2024/01/20 04:01:58;;;;;;;25.42;11.60;;;;;;;;;;5049169;28;20094;-83
2024/01/20 04:04:24;;;;;;;25.13;10.73;;;;;;;;;;5051280;28;20032;-84
2024/01/20 04:06:49;;;;;;;26.10;12.20;;;;;;;;;;5065646;28;20402;-83
2024/01/20 04:09:14;;;;;;;25.75;12.13;;;;;;;;;;5053413;28;20024;-83
2024/01/20 04:11:40;;;;;;;25.73;11.77;;;;;;;;;;5050142;28;20024;-83
2024/01/20 04:14:05;;;;;;;21.92;10.23;;;;;;;;;;5051282;28;20025;-83
2024/01/20 04:16:31;;;;;;;22.95;11.30;;;;;;;;;;5067580;28;20399;-83
2024/01/20 04:18:56;;;;;;;23.08;10.90;;;;;;;;;;5048499;28;20020;-83
2024/01/20 04:21:22;;;;;;;22.80;11.00;;;;;;;;;;5053835;28;20553;-83
2024/01/20 04:23:51;;;;;;;25.10;10.82;;;;;;;;;;5045064;28;20518;-83
2024/01/20 04:26:16;;;;;;;20.73;10.02;;;;;;;;;;5045914;28;20036;-83
2024/01/20 04:28:42;;;;;;;25.02;10.32;;;;;;;;;;5051144;28;20032;-77
2024/01/20 04:31:08;;;;;;;21.83;10.52;;;;;;;;;;5065991;28;20033;-77
2024/01/20 04:33:36;;;;;;;21.23;9.43;;;;;;;;;;5051552;28;20024;-77
2024/01/20 04:36:02;;;;;;;24.08;10.43;;;;;;;;;;5048104;28;20035;-77
2024/01/20 04:38:28;;;;;;;21.45;10.10;;;;;;;;;;5060866;28;20017;-77
2024/01/20 04:40:53;;;;;;;24.50;10.57;;;;;;;;;;5044941;28;20025;-77
2024/01/20 04:43:19;;;;;;;22.60;10.40;;;;;;;;;;5049445;28;20070;-77
2024/01/20 04:45:45;;;;;;;22.10;10.75;;;;;;;;;;5050566;28;20490;-77
2024/01/20 04:48:10;;;;;;;20.90;9.77;;;;;;;;;;5063783;28;20091;-77
2024/01/20 04:50:35;;;;;;;23.42;10.60;;;;;;;;;;5065812;28;20079;-77
2024/01/20 04:53:01;;;;;;;22.38;10.65;;;;;;;;;;5066420;28;20086;-77
2024/01/20 04:55:26;;;;;;;24.13;9.55;;;;;;;;;;5063858;28;20044;-77
2024/01/20 04:57:52;;;;;;;22.70;9.98;;;;;;;;;;5051958;28;20379;-77
2024/01/20 05:00:17;;;;;;;21.85;10.30;;;;;;;;;;5052193;28;20027;-77
2024/01/20 05:02:43;;;;;;;21.17;10.60;;;;;;;;;;5047159;28;20372;-77
2024/01/20 05:05:08;;;;;;;21.42;10.02;;;;;;;;;;5045077;28;20056;-77
2024/01/20 05:07:34;;;;;;;20.75;9.18;;;;;;;;;;5046705;28;20055;-77
2024/01/20 05:09:59;;;;;;;22.98;9.75;;;;;;;;;;5060949;28;20027;-77
2024/01/20 05:12:25;;;;;;;20.65;9.75;;;;;;;;;;5049098;28;20024;-77
2024/01/20 05:14:52;;;;;;;22.48;9.25;;;;;;;;;;5047410;28;20046;-77
2024/01/20 05:17:17;;;;;;;20.90;9.45;;;;;;;;;;5063681;28;20078;-77
2024/01/20 05:19:43;;;;;;;20.88;10.15;;;;;;;;;;5047938;28;20437;-77
2024/01/20 05:22:08;;;;;;;19.75;9.85;;;;;;;;;;5064217;28;20051;-77
2024/01/20 05:24:34;;;;;;;22.63;10.23;;;;;;;;;;5048134;28;20035;-77
2024/01/20 05:27:00;;;;;;;24.88;9.70;;;;;;;;;;5068896;28;20028;-77
2024/01/20 05:29:25;;;;;;;24.30;10.13;;;;;;;;;;5048154;28;20036;-77
2024/01/20 05:31:51;;;;;;;19.67;9.48;;;;;;;;;;5046585;28;20037;-77
2024/01/20 05:34:16;;;;;;;21.08;10.02;;;;;;;;;;5063722;28;20024;-77
2024/01/20 05:36:42;;;;;;;20.17;10.27;;;;;;;;;;5058621;28;20414;-77
2024/01/20 05:39:07;;;;;;;20.27;9.05;;;;;;;;;;5045618;28;20020;-77
2024/01/20 05:41:33;;;;;;;22.10;10.30;;;;;;;;;;5046987;28;20032;-77
2024/01/20 05:43:58;;;;;;;21.13;9.75;;;;;;;;;;5045607;28;20042;-77
2024/01/20 05:46:24;;;;;;;19.40;9.05;;;;;;;;;;5043635;28;20368;-77
2024/01/20 05:48:49;;;;;;;22.67;9.93;;;;;;;;;;5060978;28;20482;-77
2024/01/20 05:51:15;;;;;;;21.85;10.05;;;;;;;;;;5060954;28;20036;-77
2024/01/20 05:53:40;;;;;;;19.58;9.50;;;;;;;;;;5044066;28;21636;-77
2024/01/20 05:56:06;;;;;;;25.42;10.57;;;;;;;;;;5061088;28;20032;-77
2024/01/20 05:58:31;;;;;;;20.83;9.30;;;;;;;;;;5053625;28;20028;-77
2024/01/20 06:00:56;;;;;;;23.40;10.00;;;;;;;;;;5037513;28;20067;-77
2024/01/20 06:03:25;;;;;;;18.20;8.98;;;;;;;;;;5060886;28;20040;-77
2024/01/20 06:05:50;;;;;;;22.10;9.32;;;;;;;;;;5043858;28;20035;-77
2024/01/20 06:08:16;;;;;;;20.83;9.68;;;;;;;;;;5060000;28;20036;-77
2024/01/20 06:10:41;;;;;;;20.50;9.38;;;;;;;;;;5048206;28;20489;-77
2024/01/20 06:13:07;;;;;;;18.05;8.52;;;;;;;;;;5045355;28;20406;-77
2024/01/20 06:15:32;;;;;;;22.55;9.82;;;;;;;;;;5049917;28;20549;-77
2024/01/20 06:17:57;;;;;;;21.02;9.13;;;;;;;;;;5057557;28;20021;-77
2024/01/20 06:20:23;;;;;;;21.35;9.55;;;;;;;;;;5041292;28;20604;-77
2024/01/20 06:22:48;;;;;;;20.85;9.35;;;;;;;;;;5049050;28;20036;-77
2024/01/20 06:25:14;;;;;;;19.60;9.10;;;;;;;;;;5060778;28;20021;-77
2024/01/20 06:27:39;;;;;;;22.75;9.63;;;;;;;;;;5045100;28;20112;-77
2024/01/20 06:30:05;;;;;;;21.23;9.88;;;;;;;;;;5066418;28;20378;-77
2024/01/20 06:32:30;;;;;;;22.67;9.20;;;;;;;;;;5062664;28;20032;-77
2024/01/20 06:34:56;;;;;;;18.58;9.55;;;;;;;;;;5066190;28;20043;-77
2024/01/20 06:37:21;;;;;;;22.98;10.23;;;;;;;;;;5062843;28;20027;-77
2024/01/20 06:39:47;;;;;;;23.80;9.93;;;;;;;;;;5046501;28;20032;-77
2024/01/20 06:42:12;;;;;;;22.73;9.90;;;;;;;;;;5047307;28;20119;-77
2024/01/20 06:44:38;;;;;;;20.48;9.25;;;;;;;;;;5063109;28;20024;-77
2024/01/20 06:47:06;;;;;;;23.67;9.95;;;;;;;;;;5047804;28;20570;-77
2024/01/20 06:49:32;;;;;;;23.17;9.90;;;;;;;;;;5045522;28;20025;-83
2024/01/20 06:51:58;;;;;;;25.77;10.00;;;;;;;;;;5048486;28;20130;-83
2024/01/20 06:54:23;;;;;;;21.38;9.30;;;;;;;;;;5061478;28;20435;-83
2024/01/20 06:56:49;;;;;;;25.55;10.63;;;;;;;;;;5048411;28;20024;-83
2024/01/20 06:59:14;;;;;;;26.08;10.95;;;;;;;;;;5046462;28;20128;-83
2024/01/20 07:01:41;;;;;;;24.83;10.43;;;;;;;;;;5043581;28;20024;-83
2024/01/20 07:04:07;;;;;;;22.77;10.13;;;;;;;;;;5062109;28;20063;-83
2024/01/20 07:06:32;;;;;;;20.90;9.40;;;;;;;;;;5046218;28;20048;-83
2024/01/20 07:08:57;;;;;;;22.70;10.50;;;;;;;;;;5040984;28;20517;-82
2024/01/20 07:11:26;;;;;;;23.05;9.63;;;;;;;;;;5042323;28;20036;-83
2024/01/20 07:13:51;;;;;;;22.45;9.93;;;;;;;;;;5042907;28;20109;-83
2024/01/20 07:16:19;;;;;;;22.25;10.00;;;;;;;;;;5047984;28;20494;-83
2024/01/20 07:18:44;;;;;;;20.63;9.68;;;;;;;;;;5048375;28;20029;-83
2024/01/20 07:21:09;;;;;;;21.58;10.05;;;;;;;;;;5040722;28;20482;-83
2024/01/20 07:23:35;;;;;;;20.38;9.65;;;;;;;;;;5041590;28;20119;-83
2024/01/20 07:26:00;;;;;;;23.95;10.13;;;;;;;;;;5064551;28;20028;-83
2024/01/20 07:28:26;;;;;;;23.15;10.13;;;;;;;;;;5046997;28;20032;-83
2024/01/20 07:30:52;;;;;;;21.17;9.65;;;;;;;;;;5044596;28;20028;-83
2024/01/20 07:33:18;;;;;;;20.52;9.38;;;;;;;;;;5045644;28;20024;-83
2024/01/20 07:35:43;;;;;;;24.42;10.35;;;;;;;;;;5064453;28;20044;-83
2024/01/20 07:38:08;;;;;;;25.08;10.55;;;;;;;;;;5053643;28;20056;-83
2024/01/20 07:40:34;;;;;;;19.20;8.82;;;;;;;;;;5067231;28;20111;-83
2024/01/20 07:42:59;;;;;;;20.95;9.18;;;;;;;;;;5052861;28;20166;-83
2024/01/20 07:45:27;;;;;;;20.70;9.48;;;;;;;;;;5051992;28;20025;-82
2024/01/20 07:47:53;;;;;;;22.23;10.15;;;;;;;;;;5043800;28;20027;-82
2024/01/20 07:50:18;;;;;;;24.38;10.48;;;;;;;;;;5057026;28;20020;-82
2024/01/20 07:52:44;;;;;;;22.83;9.63;;;;;;;;;;5041387;28;20409;-82
2024/01/20 07:55:09;;;;;;;22.50;9.55;;;;;;;;;;5058323;28;20033;-82
2024/01/20 07:57:35;;;;;;;21.95;9.98;;;;;;;;;;5042642;28;20743;-83
2024/01/20 08:00:00;;;;;;;23.88;10.02;;;;;;;;;;5039007;28;20382;-83
2024/01/20 08:02:27;;;;;;;25.17;10.10;;;;;;;;;;5064549;28;20084;-83
2024/01/20 08:04:52;;;;;;;21.65;9.80;;;;;;;;;;5045004;28;20021;-83
2024/01/20 08:07:18;;;;;;;24.70;10.02;;;;;;;;;;5043027;28;20033;-83
2024/01/20 08:09:43;;;;;;;22.73;9.68;;;;;;;;;;5043198;28;20036;-83
2024/01/20 08:12:08;;;;;;;25.85;11.13;;;;;;;;;;5063630;28;20082;-83
2024/01/20 08:14:34;;;;;;;23.80;10.10;;;;;;;;;;5063002;28;20107;-83
2024/01/20 08:16:59;;;;;;;22.67;10.35;;;;;;;;;;5046664;28;20101;-83
2024/01/20 08:19:25;;;;;;;24.52;10.80;;;;;;;;;;5051449;28;20028;-83
2024/01/20 08:21:50;;;;;;;21.35;9.73;;;;;;;;;;5047649;28;20497;-83
2024/01/20 08:24:16;;;;;;;22.08;10.15;;;;;;;;;;5066839;28;20490;-83
2024/01/20 08:26:42;;;;;;;23.73;10.05;;;;;;;;;;5071863;28;20025;-83
2024/01/20 08:29:07;;;;;;;24.15;10.35;;;;;;;;;;5074994;28;20074;-84
2024/01/20 08:31:33;;;;;;;21.73;10.05;;;;;;;;;;5056419;28;20025;-83
2024/01/20 08:33:58;;;;;;;22.08;9.90;;;;;;;;;;5071042;28;20328;-83
2024/01/20 08:36:24;;;;;;;20.67;8.93;;;;;;;;;;5053063;28;20119;-83
2024/01/20 08:38:49;;;;;;;22.85;9.43;;;;;;;;;;5070892;28;20474;-83
2024/01/20 08:41:16;;;;;;;22.40;9.60;;;;;;;;;;5069954;28;20033;-83
2024/01/20 08:43:44;;;;;;;22.48;10.38;;;;;;;;;;5039320;28;20039;-83
2024/01/20 08:46:09;;;;;;;21.02;9.88;;;;;;;;;;5045316;28;20025;-83
2024/01/20 08:48:35;;;;;;;24.40;9.95;;;;;;;;;;5051495;28;20041;-83
2024/01/20 08:51:00;;;;;;;25.98;10.25;;;;;;;;;;5052625;28;20166;-83
2024/01/20 08:53:26;;;;;;;19.05;9.02;;;;;;;;;;5053301;28;20578;-83
2024/01/20 08:55:52;;;;;;;24.17;10.35;;;;;;;;;;5053968;28;20044;-83
2024/01/20 08:58:17;;;;;;;22.70;10.40;;;;;;;;;;5051153;28;20032;-84
2024/01/20 09:00:42;;;;;;;22.52;10.05;;;;;;;;;;5048419;28;20032;-83
2024/01/20 09:03:08;;;;;;;21.48;9.98;;;;;;;;;;5051176;28;20032;-83
2024/01/20 09:05:33;;;;;;;21.70;9.40;;;;;;;;;;5054144;28;20055;-83
2024/01/20 09:07:59;;;;;;;21.80;10.18;;;;;;;;;;5069219;28;20521;-77
2024/01/20 09:10:24;;;;;;;19.73;9.25;;;;;;;;;;5054192;28;20028;-77
2024/01/20 09:12:49;;;;;;;23.58;9.70;;;;;;;;;;5044102;28;20448;-77
2024/01/20 09:15:15;;;;;;;22.73;10.60;;;;;;;;;;5054157;28;20269;-77
2024/01/20 09:17:40;;;;;;;22.83;10.20;;;;;;;;;;5051971;28;20078;-77
2024/01/20 09:20:06;;;;;;;22.80;10.70;;;;;;;;;;5065706;28;20029;-77
2024/01/20 09:22:32;;;;;;;20.67;9.85;;;;;;;;;;5056150;28;20484;-77
2024/01/20 09:24:58;;;;;;;21.70;9.93;;;;;;;;;;5068281;28;20074;-77
2024/01/20 09:27:25;;;;;;;22.45;9.95;;;;;;;;;;5061142;28;20085;-77
2024/01/20 09:29:50;;;;;;;22.00;9.60;;;;;;;;;;5060836;28;20044;-78
2024/01/20 09:32:16;;;;;;;21.35;9.85;;;;;;;;;;5048544;28;20386;-77
2024/01/20 09:34:41;;;;;;;19.10;9.40;;;;;;;;;;5046316;28;20029;-77
2024/01/20 09:37:07;;;;;;;21.58;9.07;;;;;;;;;;5046456;28;20402;-77
2024/01/20 09:39:32;;;;;;;21.05;9.77;;;;;;;;;;5038623;28;20592;-77
2024/01/20 09:41:59;;;;;;;22.42;9.73;;;;;;;;;;5057827;28;20497;-77
2024/01/20 09:44:24;;;;;;;18.90;9.38;;;;;;;;;;5059822;28;20038;-77
2024/01/20 09:46:50;;;;;;;20.95;9.52;;;;;;;;;;5040190;28;20468;-77
2024/01/20 09:49:16;;;;;;;22.23;11.13;;;;;;;;;;5038636;28;20033;-77
2024/01/20 09:51:51;;;;;;;20.10;9.73;;;;;;;;;;5058429;28;20024;-77
2024/01/20 09:54:19;;;;;;;23.55;10.40;;;;;;;;;;5045085;28;20677;-77
2024/01/20 09:56:45;;;;;;;20.08;9.88;;;;;;;;;;5041359;28;20020;-77
2024/01/20 09:59:13;;;;;;;18.65;9.90;;;;;;;;;;5041406;28;20398;-78
2024/01/20 10:01:41;;;;;;;19.95;9.60;;;;;;;;;;5046021;28;20033;-77
2024/01/20 10:04:08;;;;;;;23.85;10.90;;;;;;;;;;5043263;28;20033;-77
2024/01/20 10:06:34;;;;;;;23.17;10.77;;;;;;;;;;5035617;28;20036;-77
2024/01/20 10:08:59;;;;;;;21.73;10.82;;;;;;;;;;5044279;28;20020;-77
2024/01/20 10:11:26;;;;;;;22.23;10.38;;;;;;;;;;5060336;28;20177;-77
2024/01/20 10:13:51;;;;;;;24.80;12.25;;;;;;;;;;5052313;28;20040;-77
2024/01/20 10:16:17;;;;;;;22.17;10.75;;;;;;;;;;5043031;28;20044;-78
2024/01/20 10:18:43;;;;;;;22.60;10.40;;;;;;;;;;5044721;28;20571;-84
2024/01/20 10:21:09;;;;;;;24.80;12.88;;;;;;;;;;5062580;28;20048;-84
2024/01/20 10:23:37;;;;;;;22.67;11.45;;;;;;;;;;5067163;28;20120;-85
2024/01/20 10:26:03;;;;;;;23.67;11.38;;;;;;;;;;5046563;28;20073;-84
2024/01/20 10:28:29;;;;;;;21.70;11.15;;;;;;;;;;5062633;28;20025;-85
2024/01/20 10:30:55;;;;;;;22.25;10.73;;;;;;;;;;5062499;28;20305;-85
2024/01/20 10:33:20;;;;;;;25.13;11.20;;;;;;;;;;5045742;28;20016;-86
2024/01/20 10:35:46;;;;;;;21.60;10.90;;;;;;;;;;5044467;28;20102;-85
2024/01/20 10:38:14;;;;;;;21.67;10.85;;;;;;;;;;5060762;28;20028;-84
2024/01/20 10:40:42;;;;;;;19.38;9.90;;;;;;;;;;5058390;28;20474;-84
2024/01/20 10:43:15;;;;;;;22.10;10.48;;;;;;;;;;5042044;28;20063;-84
2024/01/20 10:46:05;;;;;;;23.58;11.00;;;;;;;;;;5043228;28;20504;-85
2024/01/20 10:48:34;;;;;;;21.98;10.20;;;;;;;;;;5044239;28;20394;-84
2024/01/20 10:51:03;;;;;;;23.13;10.52;;;;;;;;;;5069653;28;20020;-84
2024/01/20 10:53:29;;;;;;;21.15;10.23;;;;;;;;;;5062881;28;20033;-84
2024/01/20 10:55:55;;;;;;;22.30;10.52;;;;;;;;;;5065334;28;20038;-84
2024/01/20 10:58:29;;;;;;;21.42;10.20;;;;;;;;;;5039378;28;20040;-84
2024/01/20 11:00:55;;;;;;;22.15;10.98;;;;;;;;;;5043836;28;20028;-84
2024/01/20 11:03:21;;;;;;;22.02;10.48;;;;;;;;;;5063700;28;20036;-84
2024/01/20 11:05:47;;;;;;;20.77;10.80;;;;;;;;;;5044624;28;20341;-84
2024/01/20 11:08:14;;;;;;;20.70;9.60;;;;;;;;;;5047699;28;20253;-84
2024/01/20 11:10:40;;;;;;;20.83;10.68;;;;;;;;;;5059462;28;20478;-84
2024/01/20 11:13:07;;;;;;;20.80;9.95;;;;;;;;;;5040600;28;20047;-84
2024/01/20 11:15:33;;;;;;;23.35;10.50;;;;;;;;;;5041476;28;20025;-84
2024/01/20 11:18:00;;;;;;;24.30;11.82;;;;;;;;;;5062664;28;20379;-84
2024/01/20 11:20:26;;;;;;;26.55;12.05;;;;;;;;;;5029087;28;20025;-84
2024/01/20 11:22:54;;;;;;;25.58;11.70;;;;;;;;;;5059897;28;20058;-84
2024/01/20 11:25:22;;;;;;;25.40;11.80;;;;;;;;;;5061363;28;20534;-84
2024/01/20 11:27:54;;;;;;;23.88;10.95;;;;;;;;;;5057752;28;20024;-77
2024/01/20 11:30:48;;;;;;;26.40;11.35;;;;;;;;;;5058422;28;20016;-77
2024/01/20 11:33:15;;;;;;;22.83;10.88;;;;;;;;;;5040023;28;20056;-77
2024/01/20 11:35:40;;;;;;;23.25;10.68;;;;;;;;;;5050151;28;20031;-77
2024/01/20 11:38:07;;;;;;;23.15;11.07;;;;;;;;;;5045734;28;20112;-77
2024/01/20 11:40:32;;;;;;;23.10;10.98;;;;;;;;;;5048765;28;20017;-77
2024/01/20 11:43:09;;;;;;;22.05;10.75;;;;;;;;;;5048462;28;20036;-77
2024/01/20 11:45:34;;;;;;;19.35;9.25;;;;;;;;;;5065916;28;20085;-77
2024/01/20 11:48:00;;;;;;;21.70;10.13;;;;;;;;;;5048567;28;20061;-78
2024/01/20 11:50:26;;;;;;;20.95;10.93;;;;;;;;;;5045805;28;20028;-77
2024/01/20 11:52:51;;;;;;;20.75;10.63;;;;;;;;;;5046522;28;20040;-77
2024/01/20 11:55:18;;;;;;;21.45;10.00;;;;;;;;;;5044122;28;20033;-77
2024/01/20 11:57:43;;;;;;;22.27;10.13;;;;;;;;;;5059362;28;20032;-77
2024/01/20 12:00:11;;;;;;;22.50;9.98;;;;;;;;;;5040148;28;20103;-77
2024/01/20 12:02:37;;;;;;;22.92;10.20;;;;;;;;;;5050173;28;20048;-77
2024/01/20 12:05:03;;;;;;;20.88;9.88;;;;;;;;;;5064783;28;20130;-77
2024/01/20 12:07:28;;;;;;;18.95;9.82;;;;;;;;;;5049597;28;20029;-78
2024/01/20 12:09:54;;;;;;;22.65;10.38;;;;;;;;;;5046255;28;20130;-78
2024/01/20 12:12:20;;;;;;;22.42;10.68;;;;;;;;;;5065072;28;20081;-78
2024/01/20 12:14:46;;;;;;;21.17;10.57;;;;;;;;;;5067821;28;20032;-78
2024/01/20 12:17:13;;;;;;;19.77;10.13;;;;;;;;;;5072228;28;20032;-78
2024/01/20 12:19:39;;;;;;;21.23;9.65;;;;;;;;;;5073236;28;20491;-78
2024/01/20 12:22:09;;;;;;;21.85;9.85;;;;;;;;;;5067411;28;20078;-77
2024/01/20 12:24:35;;;;;;;19.10;9.18;;;;;;;;;;5068438;28;20021;-78
2024/01/20 12:27:04;;;;;;;19.85;9.50;;;;;;;;;;5070048;28;20021;-78
2024/01/20 12:29:29;;;;;;;20.15;8.80;;;;;;;;;;5051025;28;20115;-78
2024/01/20 12:31:58;;;;;;;19.45;8.70;;;;;;;;;;5073845;28;20107;-78
2024/01/20 12:34:27;;;;;;;19.67;8.93;;;;;;;;;;5054916;28;20123;-78
2024/01/20 12:36:56;;;;;;;18.63;8.65;;;;;;;;;;5054157;28;20032;-78
2024/01/20 12:39:23;;;;;;;16.67;9.15;;;;;;;;;;5050134;28;20029;-84
2024/01/20 12:41:49;;;;;;;18.95;9.40;;;;;;;;;;5053222;28;20040;-84
2024/01/20 12:44:15;;;;;;;19.00;8.57;;;;;;;;;;5041940;28;20434;-84
2024/01/20 12:46:41;;;;;;;17.45;8.85;;;;;;;;;;5066338;28;20024;-84
2024/01/20 12:49:06;;;;;;;23.80;9.77;;;;;;;;;;5056655;28;20474;-84
2024/01/20 12:51:32;;;;;;;17.88;8.30;;;;;;;;;;5074504;28;20021;-84
2024/01/20 12:53:57;;;;;;;21.85;8.65;;;;;;;;;;5052582;28;20505;-84
2024/01/20 12:56:23;;;;;;;18.05;8.98;;;;;;;;;;5055724;28;20024;-84
2024/01/20 12:58:48;;;;;;;18.88;8.93;;;;;;;;;;5039979;28;20178;-83
2024/01/20 13:01:16;;;;;;;15.80;8.80;;;;;;;;;;5056325;28;20032;-84
2024/01/20 13:03:42;;;;;;;17.55;8.60;;;;;;;;;;5055012;28;20017;-84
2024/01/20 13:06:10;;;;;;;17.23;8.75;;;;;;;;;;5072379;28;20070;-84
2024/01/20 13:08:36;;;;;;;16.83;8.27;;;;;;;;;;5074087;28;20032;-84
2024/01/20 13:11:01;;;;;;;15.02;7.60;;;;;;;;;;5073627;28;20052;-84
2024/01/20 13:13:26;;;;;;;17.95;8.60;;;;;;;;;;5054802;28;20432;-84
2024/01/20 13:15:52;;;;;;;18.02;7.90;;;;;;;;;;5052369;28;20020;-84
2024/01/20 13:18:17;;;;;;;14.85;7.75;;;;;;;;;;5071073;28;20517;-85
2024/01/20 13:20:43;;;;;;;14.20;7.53;;;;;;;;;;5055814;28;20095;-84
2024/01/20 13:23:08;;;;;;;16.55;6.68;;;;;;;;;;5072146;28;20060;-84
2024/01/20 13:25:34;;;;;;;17.55;8.13;;;;;;;;;;5069301;28;20115;-84
2024/01/20 13:28:00;;;;;;;19.75;8.35;;;;;;;;;;5067703;28;20444;-84
2024/01/20 13:30:26;;;;;;;13.93;6.65;;;;;;;;;;5073897;28;20097;-84
2024/01/20 13:32:52;;;;;;;14.85;7.22;;;;;;;;;;5072832;28;20550;-84
2024/01/20 13:35:17;;;;;;;15.77;7.63;;;;;;;;;;5054822;28;20028;-84
2024/01/20 13:37:42;;;;;;;15.75;7.47;;;;;;;;;;5064300;28;20395;-84
2024/01/20 13:40:09;;;;;;;12.57;6.53;;;;;;;;;;5052129;28;20047;-84
2024/01/20 13:42:35;;;;;;;13.38;7.13;;;;;;;;;;5056087;28;20020;-84
2024/01/20 13:45:00;;;;;;;16.02;7.80;;;;;;;;;;5048145;28;20032;-84
2024/01/20 13:47:26;;;;;;;17.60;7.60;;;;;;;;;;5055165;28;20398;-84
2024/01/20 13:49:51;;;;;;;14.35;6.63;;;;;;;;;;5073739;28;20035;-78
2024/01/20 13:52:17;;;;;;;17.70;8.43;;;;;;;;;;5051966;28;20040;-78
2024/01/20 13:54:42;;;;;;;17.85;7.90;;;;;;;;;;5055437;28;20021;-78
2024/01/20 13:57:10;;;;;;;17.30;8.23;;;;;;;;;;5053421;28;20123;-78
2024/01/20 13:59:35;;;;;;;17.15;7.75;;;;;;;;;;5072854;28;20020;-78
2024/01/20 14:02:02;;;;;;;15.95;7.80;;;;;;;;;;5053256;28;20152;-78
2024/01/20 14:04:27;;;;;;;17.30;7.68;;;;;;;;;;5072889;28;20432;-78
2024/01/20 14:06:53;;;;;;;16.88;8.75;;;;;;;;;;5070892;28;20028;-78
2024/01/20 14:09:18;;;;;;;16.42;7.70;;;;;;;;;;5073130;28;20020;-78
2024/01/20 14:11:44;;;;;;;19.83;8.73;;;;;;;;;;5072341;28;20020;-78
2024/01/20 14:14:09;;;;;;;19.63;9.35;;;;;;;;;;5050792;28;20044;-78
2024/01/20 14:16:35;;;;;;;17.08;8.13;;;;;;;;;;5051128;28;20024;-78